createdAt,value
2022-11-09T00:01:37.675Z,11.46
2022-11-09T00:04:05.406Z,11.45
2022-11-09T00:06:32.732Z,11.50
2022-11-09T00:09:05.797Z,11.57
2022-11-09T00:11:33.675Z,11.68
2022-11-09T00:13:59.963Z,11.66
2022-11-09T00:16:26.287Z,11.58
2022-11-09T00:18:53.735Z,11.61
2022-11-09T00:21:21.845Z,11.71
2022-11-09T00:23:48.688Z,11.77
2022-11-09T00:26:16.690Z,11.79
2022-11-09T00:28:43.236Z,11.75
2022-11-09T00:31:17.764Z,11.73
2022-11-09T00:33:48.053Z,11.72
2022-11-09T00:36:14.351Z,11.72
2022-11-09T00:38:42.317Z,11.73
2022-11-09T00:41:10.983Z,11.66
2022-11-09T00:43:37.466Z,11.67
2022-11-09T00:46:04.251Z,11.72
2022-11-09T00:48:30.724Z,11.63
2022-11-09T00:50:57.905Z,11.59
2022-11-09T00:53:25.203Z,11.63
2022-11-09T00:56:03.480Z,11.63
2022-11-09T00:58:31.645Z,11.67
2022-11-09T01:01:00.091Z,11.66
2022-11-09T01:03:27.047Z,11.59
2022-11-09T01:05:53.344Z,11.57
2022-11-09T01:08:19.672Z,11.57
2022-11-09T01:10:48.395Z,11.61
2022-11-09T01:13:16.755Z,11.57
2022-11-09T01:15:52.267Z,11.53
2022-11-09T01:18:20.984Z,11.47
2022-11-09T01:20:49.300Z,11.40
2022-11-09T01:23:18.045Z,11.42
2022-11-09T01:25:44.729Z,11.49
2022-11-09T01:28:11.890Z,11.48
2022-11-09T01:30:40.991Z,11.50
2022-11-09T01:33:09.733Z,11.43
2022-11-09T01:35:38.053Z,11.35
2022-11-09T01:38:05.792Z,11.46
2022-11-09T01:40:33.496Z,11.46
2022-11-09T01:43:06.794Z,11.54
2022-11-09T01:45:33.118Z,11.61
2022-11-09T01:48:13.368Z,11.52
2022-11-09T01:50:42.983Z,11.39
2022-11-09T01:53:15.638Z,11.34
2022-11-09T01:55:44.049Z,11.40
2022-11-09T01:58:18.099Z,11.38
2022-11-09T02:00:48.830Z,11.34
2022-11-09T02:03:22.696Z,11.26
2022-11-09T02:05:49.799Z,11.37
2022-11-09T02:08:19.961Z,11.40
2022-11-09T02:11:00.487Z,11.39
2022-11-09T02:13:29.526Z,11.42
2022-11-09T02:15:56.224Z,11.40
2022-11-09T02:18:22.778Z,11.40
2022-11-09T02:20:54.181Z,11.37
2022-11-09T02:23:21.855Z,11.40
2022-11-09T02:25:56.654Z,11.40
2022-11-09T02:28:24.869Z,11.47
2022-11-09T02:30:54.315Z,11.48
2022-11-09T02:33:21.716Z,11.51
2022-11-09T02:35:48.332Z,11.53
2022-11-09T02:38:15.011Z,11.61
2022-11-09T02:40:48.167Z,11.66
2022-11-09T02:43:15.335Z,11.63
2022-11-09T02:45:41.682Z,11.68
2022-11-09T02:48:08.089Z,11.71
2022-11-09T02:50:36.905Z,11.71
2022-11-09T02:53:03.962Z,11.62
2022-11-09T02:55:30.491Z,11.64
2022-11-09T02:57:56.834Z,11.64
2022-11-09T03:00:23.122Z,11.72
2022-11-09T03:02:49.401Z,11.74
2022-11-09T03:05:15.774Z,11.77
2022-11-09T03:07:42.097Z,11.81
2022-11-09T03:10:08.844Z,11.88
2022-11-09T03:12:35.248Z,11.85
2022-11-09T03:15:06.431Z,11.88
2022-11-09T03:17:33.233Z,11.85
2022-11-09T03:19:59.578Z,11.82
2022-11-09T03:22:25.922Z,11.76
2022-11-09T03:24:52.300Z,11.82
2022-11-09T03:27:18.615Z,11.88
2022-11-09T03:29:44.915Z,11.81
2022-11-09T03:32:11.325Z,11.76
2022-11-09T03:34:37.677Z,11.71
2022-11-09T03:37:04.233Z,11.62
2022-11-09T03:39:30.565Z,11.69
2022-11-09T03:41:56.931Z,11.66
2022-11-09T03:44:23.235Z,11.66
2022-11-09T03:46:49.601Z,11.68
2022-11-09T03:49:15.938Z,11.63
2022-11-09T03:51:42.314Z,11.66
2022-11-09T03:54:08.652Z,11.69
2022-11-09T03:56:34.967Z,11.68
2022-11-09T03:59:01.303Z,11.65
2022-11-09T04:01:27.657Z,11.65
2022-11-09T04:03:53.996Z,11.71
2022-11-09T04:06:20.321Z,11.76
2022-11-09T04:08:51.082Z,11.74
2022-11-09T04:11:19.401Z,11.75
2022-11-09T04:13:47.128Z,11.75
2022-11-09T04:16:13.445Z,11.79
2022-11-09T04:18:39.736Z,11.74
2022-11-09T04:21:06.119Z,11.79
2022-11-09T04:23:32.454Z,11.77
2022-11-09T04:25:59.601Z,11.83
2022-11-09T04:28:26.313Z,11.79
2022-11-09T04:30:52.600Z,11.84
2022-11-09T04:33:19.256Z,11.80
2022-11-09T04:35:45.840Z,11.78
2022-11-09T04:38:13.921Z,11.66
2022-11-09T04:40:40.493Z,11.66
2022-11-09T04:43:10.629Z,11.69
2022-11-09T04:45:36.992Z,11.70
2022-11-09T04:48:05.768Z,11.71
2022-11-09T04:50:32.930Z,11.62
2022-11-09T04:53:11.382Z,11.54
2022-11-09T04:55:38.849Z,11.51
2022-11-09T04:58:05.725Z,11.51
2022-11-09T05:00:32.354Z,11.44
2022-11-09T05:03:03.154Z,11.48
2022-11-09T05:05:29.756Z,11.49
2022-11-09T05:07:56.359Z,11.53
2022-11-09T05:10:22.650Z,11.46
2022-11-09T05:12:48.992Z,11.44
2022-11-09T05:15:15.457Z,11.45
2022-11-09T05:17:41.794Z,11.41
2022-11-09T05:20:08.497Z,11.40
2022-11-09T05:22:58.359Z,11.35
2022-11-09T05:25:24.715Z,11.41
2022-11-09T05:27:51.748Z,11.41
2022-11-09T05:30:18.537Z,11.47
2022-11-09T05:32:44.888Z,11.45
2022-11-09T05:35:11.287Z,11.48
2022-11-09T05:37:40.743Z,11.48
2022-11-09T05:40:09.337Z,11.51
2022-11-09T05:42:40.098Z,11.67
2022-11-09T05:45:40.213Z,11.66
2022-11-09T05:47:57.442Z,11.71
2022-11-09T05:50:23.801Z,11.78
2022-11-09T05:52:50.304Z,11.82
2022-11-09T05:55:16.807Z,11.86
2022-11-09T05:57:43.116Z,11.90
2022-11-09T06:00:11.206Z,11.90
2022-11-09T06:02:37.705Z,11.95
2022-11-09T06:05:04.211Z,12.00
2022-11-09T06:07:30.511Z,11.96
2022-11-09T06:09:56.875Z,11.80
2022-11-09T06:12:23.218Z,11.79
2022-11-09T06:14:49.589Z,11.77
2022-11-09T06:17:15.942Z,11.76
2022-11-09T06:19:42.366Z,11.77
2022-11-09T06:22:09.086Z,11.82
2022-11-09T06:24:35.480Z,11.75
2022-11-09T06:27:02.096Z,11.75
2022-11-09T06:29:28.389Z,11.75
2022-11-09T06:31:55.291Z,11.71
2022-11-09T06:34:21.630Z,11.77
2022-11-09T06:36:47.963Z,11.81
2022-11-09T06:39:14.231Z,11.80
2022-11-09T06:41:44.699Z,11.72
2022-11-09T06:44:13.648Z,11.71
2022-11-09T06:46:40.118Z,11.65
2022-11-09T06:49:06.673Z,11.67
2022-11-09T06:51:33.003Z,11.72
2022-11-09T06:53:59.388Z,11.75
2022-11-09T06:56:25.808Z,11.87
2022-11-09T06:58:52.205Z,11.98
2022-11-09T07:01:21.632Z,11.95
2022-11-09T07:03:47.966Z,11.93
2022-11-09T07:06:14.528Z,11.91
2022-11-09T07:08:41.470Z,11.85
2022-11-09T07:11:11.796Z,11.86
2022-11-09T07:13:39.004Z,11.81
2022-11-09T07:16:06.477Z,11.73
2022-11-09T07:18:33.477Z,11.73
2022-11-09T07:20:59.918Z,11.80
2022-11-09T07:23:26.219Z,11.71
2022-11-09T07:25:52.893Z,11.75
2022-11-09T07:28:19.288Z,11.79
2022-11-09T07:30:45.684Z,11.79
2022-11-09T07:33:18.039Z,11.82
2022-11-09T07:35:45.196Z,11.84
2022-11-09T07:38:11.697Z,11.82
2022-11-09T07:40:38.225Z,11.84
2022-11-09T07:43:06.092Z,11.82
2022-11-09T07:45:34.351Z,11.88
2022-11-09T07:48:09.608Z,11.93
2022-11-09T07:50:37.374Z,11.85
2022-11-09T07:53:05.350Z,11.78
2022-11-09T07:55:31.626Z,11.76
2022-11-09T07:57:59.854Z,11.72
2022-11-09T08:00:28.389Z,11.75
2022-11-09T08:02:54.951Z,11.84
2022-11-09T08:05:21.623Z,11.86
2022-11-09T08:07:48.275Z,11.89
2022-11-09T08:10:14.827Z,11.97
2022-11-09T08:12:41.167Z,12.07
2022-11-09T08:15:07.962Z,12.13
2022-11-09T08:17:34.351Z,12.20
2022-11-09T08:20:00.712Z,12.28
2022-11-09T08:22:27.079Z,12.39
2022-11-09T08:24:53.487Z,12.45
2022-11-09T08:27:19.920Z,12.42
2022-11-09T08:29:46.255Z,12.43
2022-11-09T08:32:12.558Z,12.37
2022-11-09T08:34:38.849Z,12.38
2022-11-09T08:37:05.330Z,12.36
2022-11-09T08:39:31.603Z,12.44
2022-11-09T08:41:58.241Z,12.46
2022-11-09T08:44:24.556Z,12.46
2022-11-09T08:46:50.931Z,12.61
2022-11-09T08:49:17.860Z,12.64
2022-11-09T08:51:44.151Z,12.69
2022-11-09T08:54:11.182Z,12.76
2022-11-09T08:56:37.502Z,12.78
2022-11-09T08:59:03.807Z,12.69
2022-11-09T09:01:30.151Z,12.83
2022-11-09T09:03:56.502Z,12.96
2022-11-09T09:06:26.869Z,12.93
2022-11-09T09:08:56.120Z,12.98
2022-11-09T09:11:22.539Z,13.03
2022-11-09T09:13:48.886Z,13.14
2022-11-09T09:16:16.153Z,13.18
2022-11-09T09:18:42.974Z,13.26
2022-11-09T09:21:10.732Z,13.37
2022-11-09T09:23:37.065Z,13.42
2022-11-09T09:26:04.196Z,13.52
2022-11-09T09:28:30.638Z,13.55
2022-11-09T09:31:01.356Z,13.64
2022-11-09T09:33:28.181Z,13.73
2022-11-09T09:35:58.513Z,13.76
2022-11-09T09:38:28.850Z,13.85
2022-11-09T09:41:02.560Z,13.83
2022-11-09T09:43:42.529Z,13.88
2022-11-09T09:46:20.045Z,13.84
2022-11-09T09:48:51.814Z,13.65
2022-11-09T09:51:47.343Z,13.70
2022-11-09T09:54:26.341Z,13.82
2022-11-09T09:56:58.246Z,13.85
2022-11-09T09:59:38.470Z,13.92
2022-11-09T10:02:18.650Z,13.91
2022-11-09T10:04:45.172Z,13.73
2022-11-09T10:07:34.639Z,13.77
2022-11-09T10:10:18.494Z,13.76
2022-11-09T10:12:44.732Z,13.67
2022-11-09T10:15:20.998Z,13.64
2022-11-09T10:18:01.749Z,13.58
2022-11-09T10:20:51.714Z,13.61
2022-11-09T10:23:39.809Z,13.64
2022-11-09T10:26:42.815Z,13.68
2022-11-09T10:29:35.002Z,13.73
2022-11-09T10:32:12.556Z,13.76
2022-11-09T10:34:48.676Z,13.83
2022-11-09T10:37:19.369Z,13.85
2022-11-09T10:39:51.369Z,13.87
2022-11-09T10:42:17.689Z,13.92
2022-11-09T10:44:44.003Z,13.91
2022-11-09T10:47:18.491Z,13.88
2022-11-09T10:49:45.724Z,13.88
2022-11-09T10:52:43.029Z,13.91
2022-11-09T10:55:28.525Z,13.91
2022-11-09T10:58:02.375Z,13.89
2022-11-09T11:00:29.186Z,13.82
2022-11-09T11:02:55.971Z,13.93
2022-11-09T11:05:26.182Z,14.09
2022-11-09T11:07:52.560Z,14.22
2022-11-09T11:10:20.738Z,14.36
2022-11-09T11:13:07.489Z,14.32
2022-11-09T11:15:42.002Z,14.23
2022-11-09T11:18:16.935Z,14.07
2022-11-09T11:20:43.256Z,13.96
2022-11-09T11:23:14.442Z,13.99
2022-11-09T11:25:55.185Z,14.11
2022-11-09T11:28:39.393Z,14.27
2022-11-09T11:31:12.862Z,14.40
2022-11-09T11:33:39.368Z,14.52
2022-11-09T11:36:37.805Z,14.68
2022-11-09T11:39:45.427Z,14.68
2022-11-09T11:42:32.596Z,14.75
2022-11-09T11:45:39.565Z,14.58
2022-11-09T11:48:32.975Z,14.58
2022-11-09T11:51:37.191Z,14.55
2022-11-09T11:54:16.362Z,14.47
2022-11-09T11:56:47.821Z,14.48
2022-11-09T11:59:46.927Z,14.41
2022-11-09T12:02:41.353Z,14.28
2022-11-09T12:05:17.092Z,14.28
2022-11-09T12:08:23.484Z,14.23
2022-11-09T12:11:18.114Z,14.19
2022-11-09T12:14:13.182Z,14.14
2022-11-09T12:17:03.329Z,14.07
2022-11-09T12:19:41.488Z,14.08
2022-11-09T12:22:39.403Z,14.11
2022-11-09T12:25:24.148Z,14.04
2022-11-09T12:28:06.959Z,14.09
2022-11-09T12:30:51.068Z,14.20
2022-11-09T12:33:46.760Z,14.19
2022-11-09T12:36:21.472Z,14.30
2022-11-09T12:38:53.750Z,14.23
2022-11-09T12:41:24.005Z,14.33
2022-11-09T12:44:00.768Z,14.29
2022-11-09T12:46:35.165Z,14.29
2022-11-09T12:49:04.268Z,14.31
2022-11-09T12:51:33.005Z,14.31
2022-11-09T12:54:09.814Z,14.31
2022-11-09T12:56:51.777Z,14.31
2022-11-09T12:59:27.262Z,14.18
2022-11-09T13:01:58.425Z,14.28
2022-11-09T13:04:25.731Z,14.35
2022-11-09T13:07:07.562Z,14.30
2022-11-09T13:09:44.493Z,14.30
2022-11-09T13:12:34.701Z,14.07
2022-11-09T13:15:24.702Z,14.06
2022-11-09T13:18:01.496Z,14.13
2022-11-09T13:26:51.993Z,14.01
2022-11-09T13:29:18.277Z,14.00
2022-11-09T13:32:05.615Z,14.01
2022-11-09T13:34:46.675Z,13.99
2022-11-09T13:37:41.041Z,14.02
2022-11-09T13:40:32.415Z,14.03
2022-11-09T13:43:04.777Z,14.05
2022-11-09T13:45:47.038Z,14.01
2022-11-09T13:48:34.559Z,14.11
2022-11-09T13:51:05.326Z,14.09
2022-11-09T13:53:37.387Z,14.01
2022-11-09T13:56:28.249Z,14.01
2022-11-09T13:58:59.250Z,14.09
2022-11-09T14:01:33.055Z,14.00
2022-11-09T14:04:02.272Z,14.10
2022-11-09T14:06:29.787Z,14.13
2022-11-09T14:08:57.831Z,14.14
2022-11-09T14:11:40.149Z,14.07
2022-11-09T14:14:09.815Z,14.18
2022-11-09T14:16:56.901Z,13.96
2022-11-09T14:19:59.043Z,13.88
2022-11-09T14:22:27.386Z,13.83
2022-11-09T14:24:53.692Z,13.83
2022-11-09T14:27:21.813Z,13.73
2022-11-09T14:29:56.772Z,13.73
2022-11-09T14:32:26.653Z,13.71
2022-11-09T14:34:53.081Z,13.69
2022-11-09T14:37:21.116Z,13.66
2022-11-09T14:39:49.938Z,13.59
2022-11-09T14:42:23.218Z,13.44
2022-11-09T14:44:49.964Z,13.43
2022-11-09T14:47:19.150Z,13.42
2022-11-09T14:49:46.528Z,13.36
2022-11-09T14:52:17.593Z,13.31
2022-11-09T14:54:46.145Z,13.36
2022-11-09T14:57:17.121Z,13.26
2022-11-09T14:59:45.101Z,13.28
2022-11-09T15:02:17.508Z,13.27
2022-11-09T15:05:00.954Z,13.34
2022-11-09T15:07:32.668Z,13.37
2022-11-09T15:10:07.821Z,13.41
2022-11-09T15:12:35.649Z,13.48
2022-11-09T15:15:05.712Z,13.42
2022-11-09T15:17:35.920Z,13.40
2022-11-09T15:20:24.683Z,13.43
2022-11-09T15:22:52.960Z,13.48
2022-11-09T15:25:24.027Z,13.54
2022-11-09T15:28:01.290Z,13.39
2022-11-09T15:30:28.800Z,13.31
2022-11-09T15:32:55.138Z,13.33
2022-11-09T15:35:22.347Z,13.29
2022-11-09T15:37:51.491Z,13.20
2022-11-09T15:40:24.255Z,13.10
2022-11-09T15:42:50.908Z,13.09
2022-11-09T15:45:20.491Z,12.85
2022-11-09T15:47:55.933Z,12.81
2022-11-09T15:50:25.744Z,12.67
2022-11-09T15:52:52.448Z,12.70
2022-11-09T15:55:22.342Z,12.51
2022-11-09T15:57:50.567Z,12.52
2022-11-09T16:00:20.976Z,12.53
2022-11-09T16:02:47.845Z,12.58
2022-11-09T16:05:14.906Z,12.62
2022-11-09T16:07:52.338Z,12.49
2022-11-09T16:10:20.335Z,12.48
2022-11-09T16:12:47.079Z,12.44
2022-11-09T16:15:13.567Z,12.49
2022-11-09T16:17:39.877Z,12.43
2022-11-09T16:20:07.112Z,12.51
2022-11-09T16:22:33.776Z,12.47
2022-11-09T16:25:00.265Z,12.45
2022-11-09T16:27:48.912Z,12.35
2022-11-09T16:30:14.297Z,12.28
2022-11-09T16:32:40.798Z,12.22
2022-11-09T16:35:26.244Z,12.23
2022-11-09T16:37:55.911Z,12.35
2022-11-09T16:40:22.386Z,12.37
2022-11-09T16:42:49.098Z,12.32
2022-11-09T16:45:17.029Z,12.31
2022-11-09T16:47:56.697Z,12.27
2022-11-09T16:50:23.946Z,12.16
2022-11-09T16:52:50.410Z,12.10
2022-11-09T16:55:16.843Z,12.15
2022-11-09T16:57:43.225Z,12.25
2022-11-09T17:00:10.066Z,12.05
2022-11-09T17:02:36.372Z,11.96
2022-11-09T17:05:03.224Z,11.80
2022-11-09T17:07:29.641Z,11.57
2022-11-09T17:09:55.967Z,11.53
2022-11-09T17:12:22.315Z,11.37
2022-11-09T17:14:48.629Z,11.24
2022-11-09T17:17:21.175Z,11.18
2022-11-09T17:19:48.900Z,11.11
2022-11-09T17:22:15.662Z,11.12
2022-11-09T17:24:41.954Z,11.17
2022-11-09T17:27:09.635Z,11.13
2022-11-09T17:29:37.666Z,11.06
2022-11-09T17:32:05.566Z,11.01
2022-11-09T17:34:31.899Z,11.02
2022-11-09T17:37:04.075Z,11.06
2022-11-09T17:39:31.303Z,11.10
2022-11-09T17:41:57.613Z,11.04
2022-11-09T17:44:23.939Z,11.12
2022-11-09T17:46:50.340Z,11.12
2022-11-09T17:49:16.682Z,11.14
2022-11-09T17:51:43.215Z,11.12
2022-11-09T17:54:09.499Z,11.15
2022-11-09T17:56:35.977Z,11.17
2022-11-09T17:59:04.887Z,11.27
2022-11-09T18:01:35.099Z,11.30
2022-11-09T18:04:08.833Z,11.31
2022-11-09T18:06:35.813Z,11.40
2022-11-09T18:09:39.029Z,11.49
2022-11-09T18:11:49.594Z,11.44
2022-11-09T18:14:15.990Z,11.43
2022-11-09T18:16:42.337Z,11.44
2022-11-09T18:19:08.831Z,11.43
2022-11-09T18:21:35.116Z,11.32
2022-11-09T18:24:01.419Z,11.26
2022-11-09T18:26:28.308Z,11.23
2022-11-09T18:28:57.641Z,11.24
2022-11-09T18:31:23.949Z,11.24
2022-11-09T18:33:50.766Z,11.16
2022-11-09T18:36:19.230Z,11.04
2022-11-09T18:38:45.826Z,11.07
2022-11-09T18:41:15.441Z,10.96
2022-11-09T18:43:42.013Z,10.92
2022-11-09T18:46:10.830Z,10.95
2022-11-09T18:48:37.552Z,10.98
2022-11-09T18:51:05.744Z,11.00
2022-11-09T18:53:44.075Z,10.86
2022-11-09T18:56:18.885Z,10.88
2022-11-09T18:58:46.116Z,10.86
2022-11-09T19:01:12.459Z,10.85
2022-11-09T19:03:38.781Z,10.86
2022-11-09T19:06:11.345Z,10.86
2022-11-09T19:08:56.098Z,10.86
2022-11-09T19:11:22.591Z,10.85
2022-11-09T19:13:48.917Z,10.73
2022-11-09T19:16:16.041Z,10.76
2022-11-09T19:18:42.574Z,10.69
2022-11-09T19:21:24.660Z,10.59
2022-11-09T19:23:51.429Z,10.54
2022-11-09T19:26:17.809Z,10.46
2022-11-09T19:28:44.142Z,10.45
2022-11-09T19:31:14.914Z,10.48
2022-11-09T19:33:41.225Z,10.30
2022-11-09T19:36:29.130Z,10.26
2022-11-09T19:38:56.482Z,10.21
2022-11-09T19:41:24.553Z,10.20
2022-11-09T19:43:52.446Z,10.23
2022-11-09T19:46:18.786Z,10.21
2022-11-09T19:48:46.186Z,10.21
2022-11-09T19:51:14.306Z,10.16
2022-11-09T19:53:42.676Z,10.16
2022-11-09T19:56:09.477Z,10.17
2022-11-09T19:58:36.181Z,10.14
2022-11-09T20:01:08.060Z,10.15
2022-11-09T20:03:35.090Z,10.19
2022-11-09T20:06:02.617Z,10.15
2022-11-09T20:08:28.988Z,10.17
2022-11-09T20:10:55.361Z,10.13
2022-11-09T20:13:22.627Z,10.16
2022-11-09T20:15:49.039Z,10.18
2022-11-09T20:18:15.642Z,10.21
2022-11-09T20:20:41.926Z,10.12
2022-11-09T20:23:08.227Z,10.13
2022-11-09T20:25:34.644Z,10.15
2022-11-09T20:28:00.926Z,10.15
2022-11-09T20:30:27.225Z,10.14
2022-11-09T20:32:53.505Z,10.17
2022-11-09T20:35:20.229Z,10.17
2022-11-09T20:37:46.544Z,10.22
2022-11-09T20:40:13.156Z,10.30
2022-11-09T20:42:39.419Z,10.29
2022-11-09T20:45:06.146Z,10.32
2022-11-09T20:48:02.017Z,10.31
2022-11-09T20:50:19.905Z,10.33
2022-11-09T20:52:46.215Z,10.42
2022-11-09T20:55:12.622Z,10.45
2022-11-09T20:57:38.946Z,10.44
2022-11-09T21:00:05.992Z,10.41
2022-11-09T21:02:32.283Z,10.38
2022-11-09T21:04:58.571Z,10.35
2022-11-09T21:07:24.850Z,10.35
2022-11-09T21:09:51.163Z,10.35
2022-11-09T21:12:24.717Z,10.34
2022-11-09T21:14:52.827Z,10.32
2022-11-09T21:17:19.233Z,10.31
2022-11-09T21:19:45.802Z,10.31
2022-11-09T21:22:12.113Z,10.35
2022-11-09T21:24:57.025Z,10.31
2022-11-09T21:27:46.829Z,10.23
2022-11-09T21:30:14.485Z,10.23
2022-11-09T21:32:40.997Z,10.28
2022-11-09T21:35:07.854Z,10.32
2022-11-09T21:37:34.252Z,10.33
2022-11-09T21:40:00.585Z,10.41
2022-11-09T21:42:26.913Z,10.42
2022-11-09T21:44:53.208Z,10.41
2022-11-09T21:47:19.509Z,10.42
2022-11-09T21:49:45.997Z,10.46
2022-11-09T21:52:12.290Z,10.44
2022-11-09T21:54:38.870Z,10.45
2022-11-09T21:57:05.155Z,10.43
2022-11-09T21:59:31.446Z,10.42
2022-11-09T22:01:57.903Z,10.45
2022-11-09T22:04:24.282Z,10.44
2022-11-09T22:06:50.605Z,10.48
2022-11-09T22:09:18.235Z,10.49
2022-11-09T22:12:03.601Z,10.52
2022-11-09T22:14:48.583Z,10.47
2022-11-09T22:17:15.106Z,10.49
2022-11-09T22:20:00.168Z,10.51
2022-11-09T22:22:30.902Z,10.52
2022-11-09T22:24:57.955Z,10.54
2022-11-09T22:27:24.291Z,10.53
2022-11-09T22:29:50.870Z,10.54
2022-11-09T22:32:17.422Z,10.58
2022-11-09T22:34:44.620Z,10.61
2022-11-09T22:37:10.989Z,10.59
2022-11-09T22:39:37.286Z,10.57
2022-11-09T22:42:03.652Z,10.53
2022-11-09T22:44:29.952Z,10.54
2022-11-09T22:46:56.249Z,10.51
2022-11-09T22:49:22.582Z,10.52
2022-11-09T22:51:49.137Z,10.60
2022-11-09T22:54:15.428Z,10.58
2022-11-09T22:56:41.698Z,10.59
2022-11-09T22:59:08.136Z,10.55
2022-11-09T23:01:34.542Z,10.54
2022-11-09T23:04:00.876Z,10.58
2022-11-09T23:06:27.192Z,10.56
2022-11-09T23:08:53.512Z,10.56
2022-11-09T23:11:22.625Z,10.52
2022-11-09T23:13:53.976Z,10.52
2022-11-09T23:16:21.830Z,10.54
2022-11-09T23:18:54.305Z,10.51
2022-11-09T23:21:25.322Z,10.54
2022-11-09T23:23:53.208Z,10.55
2022-11-09T23:26:20.149Z,10.51
2022-11-09T23:28:46.745Z,10.48
2022-11-09T23:31:15.809Z,10.46
2022-11-09T23:33:42.924Z,10.52
2022-11-09T23:36:10.200Z,10.49
2022-11-09T23:38:38.418Z,10.41
2022-11-09T23:41:07.977Z,10.45
2022-11-09T23:43:35.645Z,10.49
2022-11-09T23:46:07.813Z,10.41
2022-11-09T23:48:34.440Z,10.42
2022-11-09T23:51:01.770Z,10.41
2022-11-09T23:53:29.999Z,10.44
2022-11-09T23:56:05.015Z,10.44
2022-11-09T23:58:31.985Z,10.46
